Time,TemperatureF,DewpointF,PressureIn,WindDirection,WindDirectionDegrees,WindSpeedMPH,WindSpeedGustMPH,Humidity,HourlyPrecipIn,Conditions,Clouds,dailyrainin,SoftwareType,DateUTC
2013-02-06 00:01:00,22.0,15.0,-100.00,North,0,1.0,7.0,73,0.00,,,-99.99,,2013-02-06 07:01:00,
2013-02-06 00:11:00,22.0,15.0,-100.00,SW,215,4.0,9.0,75,0.00,,,-99.99,,2013-02-06 07:11:00,
2013-02-06 00:22:00,21.0,15.0,-100.00,SSW,210,5.0,9.0,76,0.00,,,-99.99,,2013-02-06 07:22:00,
2013-02-06 00:32:00,22.0,15.0,-100.00,SW,225,2.0,9.0,76,0.00,,,-99.99,,2013-02-06 07:32:00,
2013-02-06 00:42:00,22.0,15.0,-100.00,SW,225,4.0,7.0,74,0.00,,,-99.99,,2013-02-06 07:42:00,
2013-02-06 00:51:00,23.0,16.0,-100.00,SW,235,4.0,7.0,73,0.00,,,-99.99,,2013-02-06 07:51:00,
2013-02-06 01:01:00,24.0,16.0,-100.00,West,280,1.0,7.0,72,0.00,,,-99.99,,2013-02-06 08:01:00,
2013-02-06 01:11:00,25.0,17.0,-100.00,WSW,250,4.0,9.0,71,0.00,,,-99.99,,2013-02-06 08:11:00,
2013-02-06 01:21:00,24.0,17.0,-100.00,WSW,240,4.0,7.0,72,0.00,,,-99.99,,2013-02-06 08:21:00,
2013-02-06 01:31:00,24.0,17.0,-100.00,WSW,245,4.0,8.0,72,0.00,,,-99.99,,2013-02-06 08:31:00,
2013-02-06 01:42:00,22.0,15.0,-100.00,SW,230,6.0,9.0,74,0.00,,,-99.99,,2013-02-06 08:42:00,
2013-02-06 01:53:00,24.0,17.0,-100.00,West,260,6.0,9.0,73,0.00,,,-99.99,,2013-02-06 08:53:00,
2013-02-06 02:01:00,24.0,16.0,-100.00,WSW,245,6.0,9.0,72,0.00,,,-99.99,,2013-02-06 09:01:00,
2013-02-06 02:11:00,23.0,16.0,-100.00,SW,230,4.0,9.0,73,0.00,,,-99.99,,2013-02-06 09:11:00,
2013-02-06 02:21:00,24.0,16.0,-100.00,WSW,245,5.0,10.0,72,0.00,,,-99.99,,2013-02-06 09:21:00,
2013-02-06 02:31:00,23.0,16.0,-100.00,SW,235,5.0,9.0,71,0.00,,,-99.99,,2013-02-06 09:31:00,
2013-02-06 02:41:00,24.0,15.0,-100.00,WSW,250,4.0,9.0,70,0.00,,,-99.99,,2013-02-06 09:41:00,
2013-02-06 02:51:00,24.0,15.0,-100.00,West,280,6.0,9.0,69,0.00,,,-99.99,,2013-02-06 09:51:00,
2013-02-06 03:01:00,24.0,15.0,-100.00,West,260,3.0,8.0,68,0.00,,,-99.99,,2013-02-06 10:01:00,
2013-02-06 03:11:00,23.0,14.0,-100.00,WNW,285,4.0,7.0,67,0.00,,,-99.99,,2013-02-06 10:11:00,
2013-02-06 03:21:00,23.0,13.0,-100.00,West,260,2.0,6.0,66,0.00,,,-99.99,,2013-02-06 10:21:00,
2013-02-06 03:31:00,22.0,13.0,-100.00,West,275,4.0,7.0,66,0.00,,,-99.99,,2013-02-06 10:31:00,
2013-02-06 03:42:00,22.0,13.0,-100.00,West,280,3.0,7.0,66,0.00,,,-99.99,,2013-02-06 10:42:00,
2013-02-06 03:51:00,21.0,12.0,-100.00,West,275,2.0,4.0,66,0.00,,,-99.99,,2013-02-06 10:51:00,
2013-02-06 04:01:00,21.0,12.0,-100.00,WSW,240,2.0,4.0,67,0.00,,,-99.99,,2013-02-06 11:01:00,
2013-02-06 04:11:00,21.0,12.0,-100.00,WSW,240,4.0,7.0,67,0.00,,,-99.99,,2013-02-06 11:11:00,
2013-02-06 04:22:00,19.0,12.0,-100.00,WSW,240,4.0,9.0,73,0.00,,,-99.99,,2013-02-06 11:22:00,
2013-02-06 04:32:00,19.0,12.0,-100.00,West,260,4.0,9.0,74,0.00,,,-99.99,,2013-02-06 11:32:00,
2013-02-06 04:42:00,19.0,12.0,-100.00,West,265,2.0,9.0,74,0.00,,,-99.99,,2013-02-06 11:42:00,
2013-02-06 04:53:00,20.0,13.0,-100.00,WSW,245,4.0,7.0,72,0.00,,,-99.99,,2013-02-06 11:53:00,
2013-02-06 05:02:00,21.0,13.0,-100.00,WSW,255,5.0,8.0,70,0.00,,,-99.99,,2013-02-06 12:02:00,
2013-02-06 05:12:00,21.0,13.0,-100.00,WSW,240,2.0,7.0,69,0.00,,,-99.99,,2013-02-06 12:12:00,
2013-02-06 05:22:00,21.0,13.0,-100.00,WSW,255,5.0,9.0,69,0.00,,,-99.99,,2013-02-06 12:22:00,
2013-02-06 05:32:00,21.0,13.0,-100.00,SW,230,6.0,10.0,69,0.00,,,-99.99,,2013-02-06 12:32:00,
2013-02-06 05:42:00,20.0,13.0,-100.00,SW,235,5.0,11.0,71,0.00,,,-99.99,,2013-02-06 12:42:00,
2013-02-06 05:52:00,20.0,12.0,-100.00,SW,220,9.0,12.0,72,0.00,,,-99.99,,2013-02-06 12:52:00,
2013-02-06 06:01:00,20.0,13.0,-100.00,WSW,240,7.0,12.0,71,0.00,,,-99.99,,2013-02-06 13:01:00,
2013-02-06 06:12:00,20.0,13.0,-100.00,West,270,5.0,10.0,72,0.00,,,-99.99,,2013-02-06 13:12:00,
2013-02-06 06:22:00,21.0,13.0,-100.00,West,280,5.0,10.0,71,0.00,,,-99.99,,2013-02-06 13:22:00,
2013-02-06 06:32:00,22.0,13.0,-100.00,West,260,6.0,9.0,69,0.00,,,-99.99,,2013-02-06 13:32:00,
2013-02-06 06:42:00,22.0,13.0,-100.00,West,275,6.0,10.0,69,0.00,,,-99.99,,2013-02-06 13:42:00,
2013-02-06 06:52:00,21.0,13.0,-100.00,WSW,240,6.0,9.0,70,0.00,,,-99.99,,2013-02-06 13:52:00,
2013-02-06 07:01:00,21.0,13.0,-100.00,WSW,245,5.0,11.0,70,0.00,,,-99.99,,2013-02-06 14:01:00,
2013-02-06 07:11:00,20.0,12.0,-100.00,WSW,250,6.0,10.0,72,0.00,,,-99.99,,2013-02-06 14:11:00,
2013-02-06 07:22:00,16.0,10.0,-100.00,SW,215,10.0,14.0,75,0.00,,,-99.99,,2013-02-06 14:22:00,
2013-02-06 07:32:00,16.0,10.0,-100.00,SW,215,9.0,12.0,76,0.00,,,-99.99,,2013-02-06 14:32:00,
2013-02-06 07:42:00,18.0,12.0,-100.00,SW,220,8.0,12.0,75,0.00,,,-99.99,,2013-02-06 14:42:00,
2013-02-06 07:52:00,21.0,14.0,-100.00,SSW,205,7.0,11.0,74,0.00,,,-99.99,,2013-02-06 14:52:00,
2013-02-06 08:02:00,22.0,15.0,-100.00,SW,235,9.0,12.0,72,0.00,,,-99.99,,2013-02-06 15:02:00,
2013-02-06 08:11:00,24.0,15.0,-100.00,SW,220,7.0,13.0,70,0.00,,,-99.99,,2013-02-06 15:11:00,
2013-02-06 08:21:00,25.0,16.0,-100.00,SSW,210,6.0,11.0,68,0.00,,,-99.99,,2013-02-06 15:21:00,
2013-02-06 08:31:00,25.0,16.0,-100.00,SSW,195,7.0,12.0,68,0.00,,,-99.99,,2013-02-06 15:31:00,
2013-02-06 08:41:00,26.0,16.0,-100.00,SSW,200,6.0,12.0,67,0.00,,,-99.99,,2013-02-06 15:41:00,
2013-02-06 08:52:00,27.0,17.0,-100.00,SW,225,4.0,9.0,63,0.00,,,-99.99,,2013-02-06 15:52:00,
2013-02-06 09:01:00,28.0,17.0,-100.00,SW,215,6.0,9.0,63,0.00,,,-99.99,,2013-02-06 16:01:00,
2013-02-06 09:11:00,29.0,17.0,-100.00,SW,220,6.0,9.0,60,0.00,,,-99.99,,2013-02-06 16:11:00,
2013-02-06 09:21:00,29.0,17.0,-100.00,SSW,195,4.0,12.0,58,0.00,,,-99.99,,2013-02-06 16:21:00,
2013-02-06 09:32:00,31.0,17.0,-100.00,ESE,105,2.0,7.0,56,0.00,,,-99.99,,2013-02-06 16:32:00,
2013-02-06 09:42:00,34.0,19.0,-100.00,ESE,110,6.0,7.0,54,0.00,,,-99.99,,2013-02-06 16:42:00,
2013-02-06 09:52:00,35.0,19.0,-100.00,East,100,3.0,7.0,51,0.00,,,-99.99,,2013-02-06 16:52:00,
2013-02-06 10:02:00,36.0,19.0,-100.00,ESE,105,4.0,7.0,49,0.00,,,-99.99,,2013-02-06 17:02:00,
2013-02-06 10:11:00,36.0,18.0,-100.00,SSW,210,2.0,7.0,47,0.00,,,-99.99,,2013-02-06 17:11:00,
2013-02-06 10:21:00,35.0,17.0,-100.00,SSW,200,4.0,8.0,46,0.00,,,-99.99,,2013-02-06 17:21:00,
2013-02-06 10:32:00,36.0,18.0,-100.00,SW,225,3.0,9.0,46,0.00,,,-99.99,,2013-02-06 17:32:00,
2013-02-06 10:42:00,37.0,19.0,-100.00,SE,125,2.0,11.0,46,0.00,,,-99.99,,2013-02-06 17:42:00,
2013-02-06 10:52:00,37.0,18.0,-100.00,SSW,205,2.0,8.0,46,0.00,,,-99.99,,2013-02-06 17:52:00,
2013-02-06 11:01:00,36.0,17.0,-100.00,SW,230,8.0,12.0,46,0.00,,,-99.99,,2013-02-06 18:01:00,
2013-02-06 11:11:00,36.0,18.0,-100.00,SE,135,4.0,10.0,46,0.00,,,-99.99,,2013-02-06 18:11:00,
2013-02-06 11:23:00,39.0,19.0,-100.00,SW,220,3.0,9.0,45,0.00,,,-99.99,,2013-02-06 18:23:00,
2013-02-06 11:32:00,38.0,19.0,-100.00,SW,215,6.0,10.0,45,0.00,,,-99.99,,2013-02-06 18:32:00,
2013-02-06 11:42:00,40.0,20.0,-100.00,SE,135,4.0,9.0,44,0.00,,,-99.99,,2013-02-06 18:42:00,
2013-02-06 11:52:00,40.0,19.0,-100.00,SSW,205,9.0,12.0,43,0.00,,,-99.99,,2013-02-06 18:52:00,
2013-02-06 12:01:00,40.0,20.0,-100.00,SE,130,4.0,12.0,44,0.00,,,-99.99,,2013-02-06 19:01:00,
2013-02-06 12:11:00,40.0,20.0,-100.00,SSW,195,9.0,14.0,44,0.00,,,-99.99,,2013-02-06 19:11:00,
2013-02-06 12:21:00,35.0,18.0,-100.00,SW,230,11.0,16.0,49,0.00,,,-99.99,,2013-02-06 19:21:00,
2013-02-06 12:31:00,35.0,19.0,-100.00,SW,220,8.0,16.0,49,0.00,,,-99.99,,2013-02-06 19:31:00,
2013-02-06 12:41:00,36.0,19.0,-100.00,South,185,8.0,16.0,49,0.00,,,-99.99,,2013-02-06 19:41:00,
2013-02-06 12:52:00,35.0,18.0,-100.00,SW,225,9.0,18.0,50,0.00,,,-99.99,,2013-02-06 19:52:00,
2013-02-06 13:01:00,36.0,19.0,-100.00,SSE,160,4.0,16.0,49,0.00,,,-99.99,,2013-02-06 20:01:00,
2013-02-06 13:11:00,37.0,20.0,-100.00,SSE,165,5.0,13.0,49,0.00,,,-99.99,,2013-02-06 20:11:00,
2013-02-06 13:21:00,37.0,20.0,-100.00,SSW,200,5.0,12.0,49,0.00,,,-99.99,,2013-02-06 20:21:00,
2013-02-06 13:32:00,39.0,20.0,-100.00,SSE,165,6.0,12.0,47,0.00,,,-99.99,,2013-02-06 20:32:00,
2013-02-06 13:42:00,38.0,19.0,-100.00,South,175,4.0,8.0,47,0.00,,,-99.99,,2013-02-06 20:42:00,
2013-02-06 13:52:00,34.0,18.0,-100.00,ESE,120,4.0,12.0,50,0.00,,,-99.99,,2013-02-06 20:52:00,
2013-02-06 14:02:00,33.0,18.0,-100.00,SSW,205,6.0,9.0,52,0.00,,,-99.99,,2013-02-06 21:02:00,
2013-02-06 14:11:00,34.0,18.0,-100.00,SSE,150,4.0,10.0,52,0.00,,,-99.99,,2013-02-06 21:11:00,
2013-02-06 14:21:00,35.0,19.0,-100.00,South,185,6.0,11.0,52,0.00,,,-99.99,,2013-02-06 21:21:00,
2013-02-06 14:32:00,35.0,19.0,-100.00,ESE,105,6.0,11.0,52,0.00,,,-99.99,,2013-02-06 21:32:00,
2013-02-06 14:42:00,34.0,19.0,-100.00,SE,130,4.0,11.0,53,0.00,,,-99.99,,2013-02-06 21:42:00,
2013-02-06 14:51:00,34.0,19.0,-100.00,East,100,5.0,12.0,53,0.00,,,-99.99,,2013-02-06 21:51:00,
2013-02-06 15:01:00,33.0,19.0,-100.00,SSW,210,4.0,12.0,54,0.00,,,-99.99,,2013-02-06 22:01:00,
2013-02-06 15:11:00,35.0,20.0,-100.00,SSE,150,1.0,9.0,53,0.00,,,-99.99,,2013-02-06 22:11:00,
2013-02-06 15:21:00,32.0,19.0,-100.00,SSW,200,6.0,9.0,56,0.00,,,-99.99,,2013-02-06 22:21:00,
2013-02-06 15:31:00,31.0,19.0,-100.00,SSW,195,9.0,14.0,59,0.00,,,-99.99,,2013-02-06 22:31:00,
2013-02-06 15:42:00,31.0,19.0,-100.00,SW,215,8.0,13.0,61,0.00,,,-99.99,,2013-02-06 22:42:00,
2013-02-06 15:52:00,29.0,19.0,-100.00,SW,220,8.0,15.0,66,0.00,,,-99.99,,2013-02-06 22:52:00,
2013-02-06 16:01:00,28.0,20.0,-100.00,SW,225,10.0,14.0,70,0.20,,,-99.99,,2013-02-06 23:01:00,
2013-02-06 16:11:00,28.0,21.0,-100.00,SW,220,6.0,15.0,76,0.30,,,-99.99,,2013-02-06 23:11:00,
2013-02-06 16:21:00,27.0,22.0,-100.00,SW,225,9.0,14.0,82,0.10,,,-99.99,,2013-02-06 23:21:00,
2013-02-06 16:32:00,27.0,22.0,-100.00,SSW,205,11.0,17.0,82,0.10,,,-99.99,,2013-02-06 23:32:00,
2013-02-06 16:42:00,27.0,22.0,-100.00,SSW,210,9.0,15.0,84,0.10,,,-99.99,,2013-02-06 23:42:00,
2013-02-06 16:52:00,27.0,22.0,-100.00,SW,225,11.0,15.0,84,0.00,,,-99.99,,2013-02-06 23:52:00,
2013-02-06 17:01:00,26.0,22.0,-100.00,SW,230,9.0,15.0,85,0.00,,,-99.99,,2013-02-07 00:01:00,
2013-02-06 17:11:00,26.0,22.0,-100.00,SW,225,11.0,14.0,85,0.00,,,-99.99,,2013-02-07 00:11:00,
2013-02-06 17:21:00,26.0,22.0,-100.00,SSW,210,8.0,16.0,85,0.00,,,-99.99,,2013-02-07 00:21:00,
2013-02-06 17:32:00,26.0,22.0,-100.00,SW,225,7.0,16.0,85,0.20,,,-99.99,,2013-02-07 00:32:00,
2013-02-06 17:42:00,26.0,22.0,-100.00,SSW,195,6.0,11.0,87,0.40,,,-99.99,,2013-02-07 00:42:00,
2013-02-06 17:52:00,25.0,23.0,-100.00,SW,225,8.0,12.0,89,0.20,,,-99.99,,2013-02-07 00:52:00,
2013-02-06 18:01:00,25.0,22.0,-100.00,SW,220,9.0,17.0,89,0.20,,,-99.99,,2013-02-07 01:01:00,
2013-02-06 18:11:00,25.0,22.0,-100.00,SSW,205,7.0,15.0,89,0.10,,,-99.99,,2013-02-07 01:11:00,
2013-02-06 18:21:00,25.0,22.0,-100.00,SW,225,8.0,12.0,89,0.10,,,-99.99,,2013-02-07 01:21:00,
2013-02-06 18:32:00,25.0,22.0,-100.00,SW,220,4.0,10.0,89,0.00,,,-99.99,,2013-02-07 01:32:00,
2013-02-06 18:41:00,25.0,22.0,-100.00,SSW,200,6.0,9.0,89,0.00,,,-99.99,,2013-02-07 01:41:00,
2013-02-06 18:52:00,25.0,22.0,-100.00,SSW,205,6.0,11.0,89,0.00,,,-99.99,,2013-02-07 01:52:00,
2013-02-06 19:01:00,25.0,22.0,-100.00,SW,220,6.0,11.0,90,0.00,,,-99.99,,2013-02-07 02:01:00,
2013-02-06 19:11:00,24.0,22.0,-100.00,South,180,6.0,10.0,90,0.00,,,-99.99,,2013-02-07 02:11:00,
2013-02-06 19:21:00,24.0,21.0,-100.00,SW,215,5.0,7.0,90,0.00,,,-99.99,,2013-02-07 02:21:00,
2013-02-06 19:31:00,24.0,21.0,-100.00,SW,220,4.0,8.0,90,0.00,,,-99.99,,2013-02-07 02:31:00,
2013-02-06 19:41:00,24.0,21.0,-100.00,SW,220,4.0,8.0,90,0.00,,,-99.99,,2013-02-07 02:41:00,
2013-02-06 19:52:00,24.0,21.0,-100.00,SW,220,4.0,8.0,90,0.00,,,-99.99,,2013-02-07 02:52:00,
2013-02-06 20:02:00,22.0,19.0,-100.00,SW,220,6.0,7.0,90,0.00,,,-99.99,,2013-02-07 03:02:00,
2013-02-06 20:11:00,22.0,19.0,-100.00,SW,215,2.0,7.0,90,0.00,,,-99.99,,2013-02-07 03:11:00,
2013-02-06 20:21:00,22.0,20.0,-100.00,SW,220,7.0,12.0,91,0.00,,,-99.99,,2013-02-07 03:21:00,
2013-02-06 20:31:00,22.0,20.0,-100.00,SW,230,4.0,12.0,91,0.00,,,-99.99,,2013-02-07 03:31:00,
2013-02-06 20:42:00,23.0,21.0,-100.00,SW,230,5.0,7.0,91,0.00,,,-99.99,,2013-02-07 03:42:00,
2013-02-06 20:52:00,23.0,20.0,-100.00,SW,215,5.0,7.0,91,0.00,,,-99.99,,2013-02-07 03:52:00,
2013-02-06 21:01:00,22.0,20.0,-100.00,SW,220,6.0,8.0,91,0.00,,,-99.99,,2013-02-07 04:01:00,
2013-02-06 21:11:00,22.0,20.0,-100.00,SSW,210,4.0,10.0,91,0.00,,,-99.99,,2013-02-07 04:11:00,
2013-02-06 21:22:00,21.0,19.0,-100.00,SW,230,4.0,7.0,91,0.00,,,-99.99,,2013-02-07 04:22:00,
2013-02-06 21:31:00,20.0,19.0,-100.00,SW,230,1.0,6.0,91,0.00,,,-99.99,,2013-02-07 04:31:00,
2013-02-06 21:41:00,19.0,17.0,-100.00,SW,220,4.0,4.0,92,0.00,,,-99.99,,2013-02-07 04:41:00,
2013-02-06 21:53:00,19.0,17.0,-100.00,WSW,250,6.0,9.0,92,0.00,,,-99.99,,2013-02-07 04:53:00,
2013-02-06 22:02:00,19.0,17.0,-100.00,SW,230,4.0,7.0,92,0.00,,,-99.99,,2013-02-07 05:02:00,
2013-02-06 22:11:00,18.0,17.0,-100.00,SSW,210,4.0,6.0,92,0.00,,,-99.99,,2013-02-07 05:11:00,
2013-02-06 22:21:00,19.0,17.0,-100.00,SW,225,4.0,8.0,93,0.00,,,-99.99,,2013-02-07 05:21:00,
2013-02-06 22:32:00,19.0,18.0,-100.00,WSW,245,2.0,6.0,93,0.00,,,-99.99,,2013-02-07 05:32:00,
2013-02-06 22:42:00,20.0,18.0,-100.00,SW,235,4.0,6.0,93,0.00,,,-99.99,,2013-02-07 05:42:00,
2013-02-06 22:52:00,19.0,17.0,-100.00,West,260,2.0,4.0,93,0.00,,,-99.99,,2013-02-07 05:52:00,
2013-02-06 23:02:00,19.0,17.0,-100.00,WSW,255,2.0,6.0,93,0.00,,,-99.99,,2013-02-07 06:02:00,
2013-02-06 23:11:00,19.0,17.0,-100.00,SW,220,3.0,4.0,93,0.00,,,-99.99,,2013-02-07 06:11:00,
2013-02-06 23:22:00,19.0,17.0,-100.00,SW,230,4.0,6.0,93,0.00,,,-99.99,,2013-02-07 06:22:00,
2013-02-06 23:32:00,18.0,17.0,-100.00,SW,235,3.0,5.0,93,0.00,,,-99.99,,2013-02-07 06:32:00,
2013-02-06 23:43:00,18.0,16.0,-100.00,SSW,210,4.0,6.0,93,0.00,,,-99.99,,2013-02-07 06:43:00,
2013-02-06 23:52:00,18.0,16.0,-100.00,WSW,250,1.0,6.0,93,0.00,,,-99.99,,2013-02-07 06:52:00,